Time;durP1;ratioP1;P1;durP2;ratioP2;P2;SDS_P1;SDS_P2;PMS_P1;PMS_P2;Temp;Humidity;BMP_temperature;BMP_pressure;BME280_temperature;BME280_humidity;BME280_pressure;Samples;Min_cycle;Max_cycle;Signal;HPM_P1;HPM_P2
2023/06/11 00:00:29;;;;;;;1.80;1.70;;;21.90;99.90;;;;;;5091691;28;20241;-72
2023/06/11 00:02:56;;;;;;;1.83;1.73;;;21.80;99.90;;;;;;5091446;28;20678;-71
2023/06/11 00:05:24;;;;;;;3.28;1.42;;;21.80;99.90;;;;;;5091895;28;20213;-72
2023/06/11 00:07:52;;;;;;;1.75;1.65;;;21.80;99.90;;;;;;5091561;28;20213;-72
2023/06/11 00:10:19;;;;;;;1.42;1.33;;;21.80;99.90;;;;;;5091737;28;20263;-72
2023/06/11 00:12:45;;;;;;;1.88;1.65;;;21.70;99.90;;;;;;5090919;28;20264;-72
2023/06/11 00:15:12;;;;;;;2.13;1.58;;;21.70;99.90;;;;;;5091303;28;20693;-73
2023/06/11 00:17:41;;;;;;;2.00;1.80;;;21.60;99.90;;;;;;5091514;28;20252;-72
2023/06/11 00:20:11;;;;;;;2.08;1.58;;;21.60;99.90;;;;;;5091356;28;20256;-72
2023/06/11 00:22:39;;;;;;;2.10;1.52;;;21.60;99.90;;;;;;5091572;28;20205;-72
2023/06/11 00:25:07;;;;;;;1.70;1.60;;;21.60;99.90;;;;;;5091021;28;20254;-72
2023/06/11 00:27:34;;;;;;;2.13;1.42;;;21.60;99.90;;;;;;5091286;28;20205;-72
2023/06/11 00:30:04;;;;;;;1.90;1.67;;;21.50;99.90;;;;;;5090713;28;20217;-72
2023/06/11 00:32:31;;;;;;;1.60;1.40;;;21.50;99.90;;;;;;5091103;28;20404;-72
2023/06/11 00:35:01;;;;;;;1.73;1.63;;;21.50;99.90;;;;;;5090849;28;20223;-72
2023/06/11 00:37:30;;;;;;;1.85;1.42;;;21.40;99.90;;;;;;5091264;28;20546;-72
2023/06/11 00:39:57;;;;;;;1.60;1.50;;;21.40;99.90;;;;;;5090705;28;20589;-72
2023/06/11 00:42:24;;;;;;;2.03;1.30;;;21.40;99.90;;;;;;5091118;28;20241;-71
2023/06/11 00:44:51;;;;;;;2.25;1.83;;;21.30;99.90;;;;;;5090180;28;20237;-72
2023/06/11 00:47:18;;;;;;;1.88;1.08;;;21.40;99.90;;;;;;5091234;28;20213;-72
2023/06/11 00:49:46;;;;;;;1.75;1.45;;;21.40;99.90;;;;;;5090440;28;20689;-72
2023/06/11 00:52:18;;;;;;;1.30;1.20;;;21.40;99.90;;;;;;5090986;28;20273;-71
2023/06/11 00:54:45;;;;;;;1.33;1.23;;;21.40;99.90;;;;;;5090446;28;20224;-71
2023/06/11 00:57:12;;;;;;;0.88;0.88;;;21.40;99.90;;;;;;5090362;28;20209;-72
2023/06/11 00:59:41;;;;;;;0.85;0.82;;;21.40;99.90;;;;;;5091138;28;20539;-72
2023/06/11 01:02:18;;;;;;;1.50;1.40;;;21.40;99.90;;;;;;5089956;28;20210;-72
2023/06/11 01:04:47;;;;;;;1.23;1.13;;;21.40;99.90;;;;;;5090460;28;20258;-72
2023/06/11 01:07:17;;;;;;;1.30;1.20;;;21.40;99.90;;;;;;5090517;28;20205;-72
2023/06/11 01:09:47;;;;;;;3.13;1.30;;;21.40;99.90;;;;;;5090500;28;20284;-72
2023/06/11 01:12:14;;;;;;;2.90;1.30;;;21.30;99.90;;;;;;5090420;28;20346;-72
2023/06/11 01:14:42;;;;;;;1.13;1.02;;;21.30;99.90;;;;;;5090915;28;20638;-72
2023/06/11 01:17:15;;;;;;;3.03;1.13;;;21.30;99.90;;;;;;5091101;28;20209;-72
2023/06/11 01:20:10;;;;;;;2.28;1.17;;;21.30;99.90;;;;;;5090371;28;20206;-72
2023/06/11 01:23:04;;;;;;;1.35;1.25;;;21.30;99.90;;;;;;5088702;28;20953;-72
2023/06/11 01:25:38;;;;;;;2.70;1.55;;;21.30;99.90;;;;;;5090817;28;20627;-72
2023/06/11 01:28:10;;;;;;;1.52;1.42;;;21.30;99.90;;;;;;5089809;28;20213;-72
2023/06/11 01:30:38;;;;;;;1.27;1.17;;;21.30;99.90;;;;;;5090755;28;20205;-71
2023/06/11 01:33:08;;;;;;;1.05;0.93;;;21.20;99.90;;;;;;5089795;28;20755;-72
2023/06/11 01:35:35;;;;;;;1.30;1.20;;;21.20;99.90;;;;;;5090740;28;20205;-72
2023/06/11 01:38:02;;;;;;;1.75;1.55;;;21.20;99.90;;;;;;5089815;28;20217;-72
2023/06/11 01:40:30;;;;;;;1.33;1.02;;;21.20;99.90;;;;;;5090483;28;20205;-73
2023/06/11 01:42:57;;;;;;;1.77;1.48;;;21.20;99.90;;;;;;5089567;28;20259;-72
2023/06/11 01:45:27;;;;;;;2.67;1.30;;;21.20;99.90;;;;;;5090360;28;20262;-73
2023/06/11 01:47:54;;;;;;;3.63;2.08;;;21.20;99.90;;;;;;5090132;28;20263;-73
2023/06/11 01:50:22;;;;;;;2.35;1.67;;;21.20;99.90;;;;;;5090569;28;20197;-73
2023/06/11 01:52:48;;;;;;;1.50;1.40;;;21.20;99.90;;;;;;5090060;28;20269;-73
2023/06/11 01:55:16;;;;;;;2.38;1.77;;;21.20;99.90;;;;;;5089707;28;20715;-73
2023/06/11 01:57:43;;;;;;;2.03;1.50;;;21.20;99.90;;;;;;5090149;28;20233;-73
2023/06/11 02:00:11;;;;;;;1.70;1.60;;;21.20;99.90;;;;;;5090716;28;20213;-73
2023/06/11 02:02:42;;;;;;;1.63;1.52;;;21.20;99.90;;;;;;5090509;28;20236;-73
2023/06/11 02:05:09;;;;;;;2.08;1.88;;;21.20;99.90;;;;;;5090220;28;20241;-73
2023/06/11 02:07:37;;;;;;;4.65;1.88;;;21.20;99.90;;;;;;5089986;28;20205;-73
2023/06/11 02:10:04;;;;;;;1.67;1.58;;;21.20;99.90;;;;;;5089480;28;20218;-73
2023/06/11 02:12:31;;;;;;;1.50;1.40;;;21.20;99.90;;;;;;5091580;28;20243;-73
2023/06/11 02:14:58;;;;;;;2.88;1.65;;;21.20;99.90;;;;;;5093600;28;20669;-73
2023/06/11 02:17:25;;;;;;;1.40;1.30;;;21.10;99.90;;;;;;5093923;28;20244;-73
2023/06/11 02:19:53;;;;;;;1.73;1.58;;;21.10;99.90;;;;;;5093518;28;20208;-73
2023/06/11 02:22:20;;;;;;;1.55;1.45;;;21.10;99.90;;;;;;5093676;28;20217;-73
2023/06/11 02:24:47;;;;;;;2.08;1.38;;;21.00;99.90;;;;;;5093009;28;20294;-73
2023/06/11 02:27:14;;;;;;;5.15;1.63;;;21.00;99.90;;;;;;5093876;28;20244;-73
2023/06/11 02:29:41;;;;;;;1.52;1.33;;;21.00;99.90;;;;;;5093666;28;20639;-73
2023/06/11 02:32:08;;;;;;;1.50;1.40;;;21.00;99.90;;;;;;5093579;28;20265;-72
2023/06/11 02:34:35;;;;;;;1.42;1.30;;;21.00;99.90;;;;;;5093556;28;20235;-72
2023/06/11 02:37:04;;;;;;;2.80;1.60;;;21.00;99.90;;;;;;5093250;28;20290;-72
2023/06/11 02:39:31;;;;;;;5.75;1.35;;;20.90;99.90;;;;;;5092992;28;20962;-72
2023/06/11 02:41:57;;;;;;;2.00;1.90;;;20.90;99.90;;;;;;5097606;28;20241;-72
2023/06/11 02:44:24;;;;;;;2.33;1.58;;;20.90;99.90;;;;;;5093333;28;20273;-72
2023/06/11 02:46:51;;;;;;;2.50;1.33;;;20.90;99.90;;;;;;5092901;28;20244;-71
2023/06/11 02:49:18;;;;;;;2.17;1.50;;;20.90;99.90;;;;;;5093082;28;20237;-72
2023/06/11 02:51:45;;;;;;;1.48;1.38;;;20.90;99.90;;;;;;5092716;28;20265;-74
2023/06/11 02:54:13;;;;;;;1.85;1.75;;;20.90;99.90;;;;;;5092572;28;20274;-73
2023/06/11 02:56:40;;;;;;;2.22;1.77;;;20.90;99.90;;;;;;5093515;28;20697;-73
2023/06/11 02:59:07;;;;;;;2.90;1.52;;;20.90;99.90;;;;;;5092915;28;20236;-74
2023/06/11 03:01:34;;;;;;;3.55;1.67;;;20.90;99.90;;;;;;5093122;28;20287;-72
2023/06/11 03:04:01;;;;;;;2.35;1.67;;;20.80;99.90;;;;;;5092466;28;20212;-72
2023/06/11 03:06:28;;;;;;;6.90;1.90;;;20.80;99.90;;;;;;5092702;28;20640;-72
2023/06/11 03:08:55;;;;;;;5.25;1.67;;;20.80;99.90;;;;;;5092561;28;20298;-72
2023/06/11 03:11:23;;;;;;;2.33;1.50;;;20.80;99.90;;;;;;5092788;28;20229;-73
2023/06/11 03:13:50;;;;;;;2.95;1.70;;;20.80;99.90;;;;;;5092558;28;20265;-73
2023/06/11 03:16:17;;;;;;;2.10;1.90;;;20.80;99.90;;;;;;5092603;28;20248;-73
2023/06/11 03:18:44;;;;;;;1.65;1.50;;;20.80;99.90;;;;;;5092450;28;20753;-72
2023/06/11 03:21:11;;;;;;;2.35;2.15;;;20.70;99.90;;;;;;5092640;28;20527;-72
2023/06/11 03:23:38;;;;;;;1.95;1.85;;;20.80;99.90;;;;;;5092073;28;20229;-72
2023/06/11 03:26:05;;;;;;;1.83;1.70;;;20.70;99.90;;;;;;5092374;28;20271;-72
2023/06/11 03:28:33;;;;;;;2.85;2.58;;;20.60;99.90;;;;;;5092265;28;20305;-72
2023/06/11 03:31:00;;;;;;;5.15;1.92;;;20.60;99.90;;;;;;5091938;28;20755;-72
2023/06/11 03:33:27;;;;;;;1.73;1.42;;;20.50;99.90;;;;;;5092736;28;20753;-72
2023/06/11 03:35:54;;;;;;;3.97;1.85;;;20.50;99.90;;;;;;5091944;28;20244;-72
2023/06/11 03:38:21;;;;;;;1.48;1.33;;;20.50;99.90;;;;;;5092201;28;20240;-72
2023/06/11 03:40:48;;;;;;;1.42;1.33;;;20.40;99.90;;;;;;5092004;28;20240;-72
2023/06/11 03:43:15;;;;;;;1.45;1.33;;;20.40;99.90;;;;;;5092091;28;20263;-72
2023/06/11 03:45:43;;;;;;;1.50;1.40;;;20.50;99.90;;;;;;5092065;28;20237;-72
2023/06/11 03:48:10;;;;;;;2.00;1.83;;;20.40;99.90;;;;;;5092271;28;20237;-72
2023/06/11 03:50:37;;;;;;;1.85;1.75;;;20.40;99.90;;;;;;5092260;28;20202;-73
2023/06/11 03:53:04;;;;;;;2.00;1.83;;;20.30;99.90;;;;;;5091595;28;20731;-73
2023/06/11 03:55:30;;;;;;;2.90;1.38;;;20.30;99.90;;;;;;5091741;28;20267;-73
2023/06/11 03:57:57;;;;;;;2.10;1.50;;;20.30;99.90;;;;;;5091646;28;20263;-74
2023/06/11 04:00:26;;;;;;;1.33;1.23;;;20.30;99.90;;;;;;5091878;28;20265;-73
2023/06/11 04:02:55;;;;;;;4.20;2.40;;;20.20;99.90;;;;;;5091231;28;20205;-73
2023/06/11 04:05:21;;;;;;;2.50;1.40;;;20.20;99.90;;;;;;5092018;28;20248;-73
2023/06/11 04:07:48;;;;;;;1.73;1.63;;;20.10;99.90;;;;;;5091138;28;20693;-73
2023/06/11 04:10:16;;;;;;;4.07;1.40;;;20.10;99.90;;;;;;5091774;28;20233;-73
2023/06/11 04:12:43;;;;;;;1.75;1.30;;;20.10;99.90;;;;;;5091560;28;20745;-73
2023/06/11 04:15:12;;;;;;;4.35;1.95;;;20.10;99.90;;;;;;5091865;28;20258;-72
2023/06/11 04:17:39;;;;;;;1.83;1.55;;;20.00;99.90;;;;;;5091901;28;20661;-72
2023/06/11 04:20:09;;;;;;;3.47;1.92;;;20.00;99.90;;;;;;5091078;28;20695;-71
2023/06/11 04:22:36;;;;;;;1.70;1.60;;;20.00;99.90;;;;;;5091342;28;20582;-71
2023/06/11 04:25:03;;;;;;;1.75;1.60;;;20.00;99.90;;;;;;5091122;28;20233;-72
2023/06/11 04:27:33;;;;;;;3.13;1.60;;;20.00;99.90;;;;;;5091375;28;20302;-72
2023/06/11 04:30:01;;;;;;;1.13;1.02;;;20.00;99.90;;;;;;5090832;28;20630;-72
2023/06/11 04:32:34;;;;;;;2.85;1.77;;;20.00;99.90;;;;;;5091263;28;20314;-72
2023/06/11 04:35:02;;;;;;;1.85;1.55;;;20.00;99.90;;;;;;5090505;28;20822;-72
2023/06/11 04:37:30;;;;;;;2.35;1.63;;;20.00;99.90;;;;;;5089920;28;20216;-72
2023/06/11 04:40:05;;;;;;;1.58;1.48;;;19.90;99.90;;;;;;5095788;28;20216;-71
2023/06/11 04:42:32;;;;;;;2.00;1.55;;;19.90;99.90;;;;;;5100977;28;20211;-72
2023/06/11 04:44:59;;;;;;;1.90;1.65;;;19.80;99.90;;;;;;5095278;28;20258;-72
2023/06/11 04:47:28;;;;;;;2.20;2.00;;;19.80;99.90;;;;;;5106454;28;20205;-72
2023/06/11 04:50:02;;;;;;;2.90;2.00;;;19.80;99.90;;;;;;5094161;28;20259;-72
2023/06/11 04:52:32;;;;;;;2.47;1.52;;;19.80;99.90;;;;;;5095782;28;20347;-72
2023/06/11 04:55:00;;;;;;;3.92;2.33;;;19.90;99.90;;;;;;5090162;28;20613;-72
2023/06/11 04:57:27;;;;;;;2.40;1.45;;;19.90;99.90;;;;;;5090307;28;20202;-72
2023/06/11 04:59:53;;;;;;;2.00;1.73;;;19.90;99.90;;;;;;5090071;28;20237;-73
2023/06/11 05:02:21;;;;;;;1.70;1.60;;;20.00;99.90;;;;;;5090321;28;20704;-72
2023/06/11 05:04:49;;;;;;;1.63;1.52;;;20.00;99.90;;;;;;5089496;28;20657;-73
2023/06/11 05:07:17;;;;;;;4.32;2.45;;;20.00;99.90;;;;;;5090536;28;20258;-73
2023/06/11 05:09:46;;;;;;;1.70;1.60;;;20.00;99.90;;;;;;5090364;28;20202;-73
2023/06/11 05:12:13;;;;;;;1.80;1.65;;;20.00;99.90;;;;;;5090755;28;20241;-72
2023/06/11 05:14:40;;;;;;;1.92;1.67;;;20.00;99.90;;;;;;5093512;28;20233;-74
2023/06/11 05:17:07;;;;;;;2.80;1.90;;;20.00;99.90;;;;;;5091677;28;20210;-73
2023/06/11 05:19:34;;;;;;;2.05;1.60;;;20.10;99.90;;;;;;5091665;28;20236;-73
2023/06/11 05:22:01;;;;;;;9.15;1.95;;;20.00;99.90;;;;;;5089968;28;20209;-74
2023/06/11 05:24:29;;;;;;;2.97;1.63;;;20.00;99.90;;;;;;5106340;28;20209;-74
2023/06/11 05:26:59;;;;;;;2.60;1.55;;;20.00;99.90;;;;;;5101627;28;20216;-72
2023/06/11 05:29:26;;;;;;;3.88;1.65;;;20.00;99.90;;;;;;5093833;28;20237;-72
2023/06/11 05:31:56;;;;;;;2.35;1.55;;;20.10;99.90;;;;;;5094394;28;20205;-72
2023/06/11 05:34:25;;;;;;;2.05;1.58;;;20.20;99.90;;;;;;5093594;28;20730;-71
2023/06/11 05:36:53;;;;;;;1.75;1.60;;;20.20;99.90;;;;;;5096915;28;20209;-73
2023/06/11 05:39:20;;;;;;;1.55;1.45;;;20.20;99.90;;;;;;5092130;28;20197;-73
2023/06/11 05:41:47;;;;;;;1.65;1.55;;;20.20;99.90;;;;;;5096275;28;20205;-73
2023/06/11 05:44:17;;;;;;;1.80;1.50;;;20.20;99.90;;;;;;5089142;28;20290;-74
2023/06/11 05:46:44;;;;;;;1.75;1.58;;;20.20;99.90;;;;;;5089188;28;20233;-73
2023/06/11 05:49:11;;;;;;;1.70;1.48;;;20.30;99.90;;;;;;5099269;28;20255;-73
2023/06/11 05:51:38;;;;;;;2.42;2.05;;;20.30;99.90;;;;;;5096725;28;20206;-74
2023/06/11 05:54:05;;;;;;;3.42;2.05;;;20.30;99.90;;;;;;5095599;28;20268;-72
2023/06/11 05:56:32;;;;;;;1.42;1.33;;;20.40;99.90;;;;;;5095672;28;20237;-73
2023/06/11 05:58:59;;;;;;;1.98;1.40;;;20.50;99.90;;;;;;5100429;28;20236;-72
2023/06/11 06:01:28;;;;;;;2.20;1.60;;;20.50;99.90;;;;;;5105393;28;20201;-73
2023/06/11 06:03:55;;;;;;;2.60;1.95;;;20.50;99.90;;;;;;5104049;28;20223;-73
2023/06/11 06:06:22;;;;;;;3.78;2.03;;;20.60;99.90;;;;;;5105748;28;20682;-74
2023/06/11 06:08:49;;;;;;;3.13;1.92;;;20.60;99.90;;;;;;5105697;28;20240;-73
2023/06/11 06:11:15;;;;;;;2.17;1.60;;;20.70;99.90;;;;;;5099614;28;20257;-75
2023/06/11 06:13:43;;;;;;;1.83;1.73;;;20.80;99.90;;;;;;5096025;28;20277;-74
2023/06/11 06:16:10;;;;;;;3.53;1.98;;;20.90;99.90;;;;;;5093750;28;20248;-75
2023/06/11 06:18:38;;;;;;;1.52;1.42;;;20.90;99.90;;;;;;5093884;28;20237;-72
2023/06/11 06:21:05;;;;;;;2.83;1.75;;;21.00;99.90;;;;;;5098332;28;20213;-73
2023/06/11 06:23:32;;;;;;;1.80;1.55;;;21.20;99.90;;;;;;5106507;28;20201;-73
2023/06/11 06:25:59;;;;;;;1.83;1.60;;;21.30;99.90;;;;;;5100778;28;20209;-73
2023/06/11 06:28:26;;;;;;;4.78;2.28;;;21.40;99.90;;;;;;5107196;28;20232;-74
2023/06/11 06:30:53;;;;;;;2.17;1.98;;;21.50;99.90;;;;;;5104374;28;20249;-73
2023/06/11 06:33:20;;;;;;;2.10;1.90;;;21.50;99.90;;;;;;5104475;28;20252;-73
2023/06/11 06:35:48;;;;;;;1.92;1.75;;;21.60;99.90;;;;;;5100237;28;20640;-73
2023/06/11 06:38:15;;;;;;;2.33;2.13;;;21.70;99.90;;;;;;5101928;28;20252;-74
2023/06/11 06:40:42;;;;;;;3.35;2.08;;;21.80;99.90;;;;;;5099750;28;20229;-74
2023/06/11 06:43:09;;;;;;;2.28;1.88;;;21.80;99.90;;;;;;5098738;28;20213;-74
2023/06/11 06:45:38;;;;;;;2.28;1.65;;;21.90;99.90;;;;;;5093697;28;20225;-74
2023/06/11 06:48:05;;;;;;;3.60;2.30;;;21.90;99.90;;;;;;5110226;28;20208;-74
2023/06/11 06:50:32;;;;;;;1.65;1.55;;;22.10;99.90;;;;;;5093980;28;20685;-73
2023/06/11 06:53:00;;;;;;;3.53;2.22;;;22.00;99.90;;;;;;5092150;28;22135;-73
2023/06/11 06:55:27;;;;;;;2.33;1.90;;;22.00;99.90;;;;;;5092729;28;20279;-74
2023/06/11 06:57:54;;;;;;;2.10;1.90;;;21.90;99.90;;;;;;5096800;28;20701;-74
2023/06/11 07:00:21;;;;;;;2.17;1.98;;;21.80;99.90;;;;;;5098689;28;20286;-74
2023/06/11 07:02:48;;;;;;;2.33;1.65;;;22.00;99.90;;;;;;5092690;28;20283;-74
2023/06/11 07:05:15;;;;;;;3.88;1.90;;;22.20;99.90;;;;;;5101594;28;20243;-74
2023/06/11 07:07:42;;;;;;;2.25;1.98;;;22.30;99.90;;;;;;5097387;28;20233;-74
2023/06/11 07:10:11;;;;;;;4.20;2.00;;;22.50;99.90;;;;;;5092905;28;20221;-74
2023/06/11 07:12:38;;;;;;;1.65;1.55;;;22.60;99.90;;;;;;5102470;28;20261;-74
2023/06/11 07:15:05;;;;;;;4.60;2.03;;;22.80;99.90;;;;;;5092418;28;20334;-74
2023/06/11 07:17:32;;;;;;;2.97;2.25;;;23.00;99.90;;;;;;5092754;28;20205;-74
2023/06/11 07:19:59;;;;;;;4.45;2.35;;;23.10;99.90;;;;;;5092289;28;20263;-74
2023/06/11 07:22:26;;;;;;;2.67;2.38;;;23.30;99.90;;;;;;5097784;28;20267;-75
2023/06/11 07:24:56;;;;;;;1.80;1.70;;;23.50;99.90;;;;;;5092042;28;20236;-74
2023/06/11 07:27:24;;;;;;;1.67;1.58;;;23.40;99.90;;;;;;5092776;28;20262;-75
2023/06/11 07:29:51;;;;;;;7.18;2.10;;;23.50;99.90;;;;;;5091782;28;20233;-73
2023/06/11 07:32:18;;;;;;;1.50;1.40;;;23.70;99.90;;;;;;5091590;28;20240;-73
2023/06/11 07:34:45;;;;;;;5.75;1.80;;;23.60;99.90;;;;;;5094648;28;20678;-73
2023/06/11 07:37:11;;;;;;;3.50;2.05;;;23.50;99.90;;;;;;5106590;28;20236;-73
2023/06/11 07:39:38;;;;;;;1.70;1.60;;;23.30;99.90;;;;;;5098521;28;20267;-73
2023/06/11 07:42:06;;;;;;;2.20;1.85;;;23.50;99.90;;;;;;5101011;28;20244;-73
2023/06/11 07:44:35;;;;;;;1.40;1.30;;;23.60;99.90;;;;;;5102389;28;20202;-73
2023/06/11 07:47:01;;;;;;;2.17;2.05;;;23.70;99.90;;;;;;5097786;28;20302;-73
2023/06/11 07:49:30;;;;;;;1.65;1.55;;;23.80;99.90;;;;;;5091736;28;20631;-73
2023/06/11 07:51:56;;;;;;;2.92;1.95;;;23.80;99.90;;;;;;5091054;28;20210;-74
2023/06/11 07:54:23;;;;;;;1.85;1.75;;;23.90;99.90;;;;;;5091714;28;20257;-75
2023/06/11 07:56:51;;;;;;;1.75;1.60;;;24.00;99.90;;;;;;5091373;28;20210;-74
2023/06/11 07:59:18;;;;;;;2.22;1.95;;;24.30;99.90;;;;;;5091339;28;20677;-75
2023/06/11 08:01:46;;;;;;;3.13;2.50;;;24.30;99.90;;;;;;5091595;28;20241;-74
2023/06/11 08:04:13;;;;;;;2.60;2.40;;;24.20;99.90;;;;;;5106212;28;20236;-75
2023/06/11 08:06:40;;;;;;;3.15;2.20;;;24.10;99.90;;;;;;5101865;28;20647;-75
2023/06/11 08:09:08;;;;;;;2.08;1.70;;;24.20;99.90;;;;;;5102140;28;20716;-77
2023/06/11 08:11:35;;;;;;;3.33;2.30;;;24.30;99.90;;;;;;5095768;28;20504;-73
2023/06/11 08:14:02;;;;;;;2.60;2.25;;;24.30;99.90;;;;;;5096729;28;20268;-74
2023/06/11 08:16:28;;;;;;;2.58;2.38;;;24.30;99.90;;;;;;5099013;28;20266;-75
2023/06/11 08:18:57;;;;;;;3.00;2.05;;;24.30;99.90;;;;;;5104234;28;20209;-74
2023/06/11 08:21:24;;;;;;;2.10;2.00;;;24.40;99.90;;;;;;5106769;28;20580;-76
2023/06/11 08:23:51;;;;;;;3.08;2.08;;;24.50;99.90;;;;;;5106977;28;20208;-76
2023/06/11 08:26:19;;;;;;;2.00;1.88;;;24.50;99.90;;;;;;5104544;28;20204;-74
2023/06/11 08:28:46;;;;;;;2.53;2.33;;;24.70;99.90;;;;;;5103997;28;20201;-74
2023/06/11 08:31:14;;;;;;;3.30;1.90;;;25.10;99.90;;;;;;5094051;28;20224;-75
2023/06/11 08:33:42;;;;;;;3.83;1.92;;;25.10;99.90;;;;;;5101753;28;20231;-76
2023/06/11 08:36:10;;;;;;;3.50;1.83;;;25.10;99.90;;;;;;5098998;28;20204;-73
2023/06/11 08:38:37;;;;;;;3.17;2.20;;;25.20;99.90;;;;;;5096532;28;20210;-75
2023/06/11 08:41:04;;;;;;;2.75;2.25;;;25.20;99.90;;;;;;5100170;28;20213;-73
2023/06/11 08:43:31;;;;;;;2.15;1.83;;;25.30;99.90;;;;;;5102197;28;20270;-74
2023/06/11 08:45:58;;;;;;;2.33;1.98;;;25.70;99.90;;;;;;5096176;28;20240;-73
2023/06/11 08:48:28;;;;;;;3.53;1.65;;;25.60;99.90;;;;;;5099399;28;20289;-74
2023/06/11 08:50:55;;;;;;;2.38;2.17;;;26.40;99.90;;;;;;5088610;28;20677;-73
2023/06/11 08:53:24;;;;;;;3.13;2.28;;;26.20;99.90;;;;;;5090070;28;20282;-73
2023/06/11 08:55:51;;;;;;;1.90;1.80;;;26.40;99.90;;;;;;5089500;28;20676;-73
2023/06/11 08:58:21;;;;;;;4.70;2.20;;;26.40;99.90;;;;;;5090919;28;20266;-73
2023/06/11 09:00:48;;;;;;;2.05;1.85;;;26.50;99.90;;;;;;5090279;28;20201;-74
2023/06/11 09:03:16;;;;;;;2.83;2.00;;;26.40;99.90;;;;;;5091009;28;20205;-73
2023/06/11 09:05:45;;;;;;;2.17;2.08;;;26.50;99.90;;;;;;5090572;28;20210;-73
2023/06/11 09:08:12;;;;;;;2.30;2.10;;;27.30;99.90;;;;;;5090892;28;20205;-73
2023/06/11 09:10:49;;;;;;;2.15;2.00;;;27.70;99.90;;;;;;5090875;28;20209;-73
2023/06/11 09:13:17;;;;;;;1.95;1.77;;;27.80;99.90;;;;;;5090671;28;20241;-74
2023/06/11 09:15:48;;;;;;;2.17;1.98;;;28.50;99.90;;;;;;5090667;28;20272;-74
2023/06/11 09:18:22;;;;;;;3.72;2.28;;;28.30;99.90;;;;;;5090574;28;20205;-73
2023/06/11 09:20:50;;;;;;;2.55;2.15;;;27.90;99.90;;;;;;5090376;28;20205;-73
2023/06/11 09:23:28;;;;;;;2.63;2.42;;;27.70;99.90;;;;;;5089290;28;20235;-74
2023/06/11 09:25:56;;;;;;;2.55;2.35;;;27.70;99.90;;;;;;5089904;28;20251;-74
2023/06/11 09:28:29;;;;;;;2.88;2.67;;;27.60;99.90;;;;;;5097084;28;20285;-76
2023/06/11 09:30:56;;;;;;;3.15;2.83;;;28.20;99.90;;;;;;5097092;28;20220;-76
2023/06/11 09:33:24;;;;;;;2.13;1.92;;;32.30;99.90;;;;;;5090620;28;20292;-77
2023/06/11 09:35:51;;;;;;;2.63;1.92;;;36.00;99.90;;;;;;5090013;28;20306;-76
2023/06/11 09:38:19;;;;;;;2.75;2.55;;;37.80;99.90;;;;;;5090127;28;20200;-75
2023/06/11 09:40:47;;;;;;;2.50;2.30;;;37.90;99.90;;;;;;5089876;28;20219;-74
2023/06/11 09:43:18;;;;;;;1.98;1.88;;;36.70;99.90;;;;;;5090466;28;20215;-74
2023/06/11 09:45:48;;;;;;;2.40;2.30;;;35.30;99.90;;;;;;5090107;28;20235;-74
2023/06/11 09:48:15;;;;;;;2.42;2.20;;;34.20;99.90;;;;;;5090256;28;20209;-74
2023/06/11 09:50:43;;;;;;;4.30;3.03;;;35.50;99.90;;;;;;5090419;28;20250;-73
2023/06/11 09:53:12;;;;;;;2.17;2.08;;;38.80;99.90;;;;;;5090778;28;20240;-74
2023/06/11 09:55:40;;;;;;;2.28;2.17;;;42.20;99.90;;;;;;5090095;28;20719;-75
2023/06/11 09:58:10;;;;;;;2.60;2.40;;;43.10;99.90;;;;;;5090290;28;20251;-74
2023/06/11 10:00:38;;;;;;;1.90;1.80;;;43.30;99.90;;;;;;5090429;28;20237;-75
2023/06/11 10:03:05;;;;;;;2.35;2.15;;;43.20;99.90;;;;;;5089840;28;20236;-75
2023/06/11 10:05:35;;;;;;;2.15;1.95;;;43.40;99.90;;;;;;5090211;28;20215;-74
2023/06/11 10:08:05;;;;;;;2.47;2.28;;;43.40;99.90;;;;;;5089765;28;20213;-74
2023/06/11 10:10:38;;;;;;;1.90;1.60;;;42.40;99.90;;;;;;5090215;28;20771;-75
2023/06/11 10:13:05;;;;;;;1.92;1.83;;;41.80;99.90;;;;;;5089816;28;20232;-75
2023/06/11 10:15:33;;;;;;;2.38;2.15;;;42.80;99.90;;;;;;5089675;28;20287;-75
2023/06/11 10:18:02;;;;;;;3.53;1.98;;;40.10;99.90;;;;;;5090579;28;20684;-74
2023/06/11 10:20:31;;;;;;;2.30;2.10;;;36.50;99.90;;;;;;5090124;28;20278;-73
2023/06/11 10:23:06;;;;;;;2.13;1.90;;;32.60;99.90;;;;;;5088812;28;20232;-74
2023/06/11 10:25:34;;;;;;;4.35;2.92;;;30.10;99.90;;;;;;5090041;28;20208;-74
2023/06/11 10:28:01;;;;;;;2.30;2.10;;;29.00;99.90;;;;;;5089425;28;20205;-74
2023/06/11 10:30:28;;;;;;;2.05;1.95;;;29.20;99.90;;;;;;5090298;28;20301;-74
2023/06/11 10:32:56;;;;;;;3.35;2.20;;;31.10;99.90;;;;;;5089736;28;20216;-73
2023/06/11 10:35:28;;;;;;;2.00;1.90;;;30.30;99.90;;;;;;5109655;28;20235;-74
2023/06/11 10:38:03;;;;;;;3.28;1.80;;;29.60;99.90;;;;;;5112192;28;20667;-75
2023/06/11 10:40:34;;;;;;;4.55;2.42;;;28.60;99.90;;;;;;5111125;28;20569;-74
2023/06/11 10:43:04;;;;;;;1.95;1.85;;;28.20;99.90;;;;;;5111312;28;20771;-73
2023/06/11 10:45:36;;;;;;;1.90;1.80;;;28.10;99.90;;;;;;5112009;28;20210;-74
2023/06/11 10:48:03;;;;;;;4.47;2.28;;;28.20;99.90;;;;;;5112357;28;20570;-74
2023/06/11 10:50:31;;;;;;;2.35;2.15;;;28.00;99.90;;;;;;5092845;28;20232;-74
2023/06/11 10:53:01;;;;;;;2.15;1.83;;;27.90;99.90;;;;;;5092489;28;20241;-74
2023/06/11 10:55:29;;;;;;;2.78;2.55;;;28.00;99.90;;;;;;5092770;28;20233;-74
2023/06/11 10:57:57;;;;;;;2.33;2.13;;;28.00;99.90;;;;;;5092911;28;20379;-75
2023/06/11 11:00:28;;;;;;;3.17;2.17;;;27.90;99.90;;;;;;5093341;28;20248;-74
2023/06/11 11:02:57;;;;;;;2.72;2.50;;;28.20;99.90;;;;;;5092704;28;20292;-74
2023/06/11 11:05:25;;;;;;;2.33;2.22;;;28.90;99.90;;;;;;5092975;28;20205;-74
2023/06/11 11:07:54;;;;;;;3.95;2.45;;;29.70;99.90;;;;;;5091972;28;20327;-74
2023/06/11 11:10:25;;;;;;;3.55;2.90;;;29.80;99.90;;;;;;5093077;28;20241;-74
2023/06/11 11:12:53;;;;;;;2.95;2.75;;;30.10;99.90;;;;;;5092419;28;20229;-74
2023/06/11 11:15:20;;;;;;;2.72;2.28;;;30.00;99.90;;;;;;5101496;28;20711;-74
2023/06/11 11:17:48;;;;;;;2.85;2.10;;;29.70;99.90;;;;;;5095115;28;20705;-74
2023/06/11 11:20:18;;;;;;;12.50;2.45;;;29.70;99.90;;;;;;5092691;28;20210;-74
2023/06/11 11:22:51;;;;;;;2.50;2.38;;;29.60;99.90;;;;;;5091875;28;20580;-74
2023/06/11 11:25:21;;;;;;;2.17;1.98;;;29.50;99.90;;;;;;5092644;28;20738;-74
2023/06/11 11:27:48;;;;;;;2.60;2.40;;;29.40;99.90;;;;;;5092241;28;20241;-72
2023/06/11 11:30:16;;;;;;;1.88;1.65;;;29.30;99.90;;;;;;5092631;28;20240;-74
2023/06/11 11:32:43;;;;;;;2.10;2.00;;;28.90;99.90;;;;;;5092623;28;20209;-74
2023/06/11 11:35:13;;;;;;;2.70;2.47;;;28.80;99.90;;;;;;5092947;28;20268;-75
2023/06/11 11:37:40;;;;;;;2.83;1.80;;;28.20;99.90;;;;;;5092656;28;20206;-75
2023/06/11 11:40:08;;;;;;;2.30;2.10;;;28.00;99.90;;;;;;5092233;28;20436;-74
2023/06/11 11:42:48;;;;;;;3.70;2.60;;;28.40;99.90;;;;;;5092283;28;20259;-75
2023/06/11 11:45:15;;;;;;;1.80;1.70;;;28.90;99.90;;;;;;5091342;28;20251;-76
2023/06/11 11:47:43;;;;;;;1.85;1.75;;;29.20;99.90;;;;;;5092488;28;20240;-74
2023/06/11 11:50:19;;;;;;;2.75;1.70;;;29.00;99.90;;;;;;5092309;28;20202;-75
2023/06/11 11:52:58;;;;;;;3.28;2.35;;;29.50;99.90;;;;;;5091789;28;20240;-75
2023/06/11 11:55:25;;;;;;;2.50;2.30;;;29.60;99.90;;;;;;5091631;28;20240;-74
2023/06/11 11:58:03;;;;;;;1.85;1.75;;;29.90;99.90;;;;;;5091632;28;20197;-75
2023/06/11 12:00:30;;;;;;;2.65;2.45;;;29.60;99.90;;;;;;5091808;28;20245;-75
2023/06/11 12:02:57;;;;;;;2.40;2.20;;;29.50;99.90;;;;;;5091689;28;20250;-76
2023/06/11 12:05:29;;;;;;;2.05;1.77;;;29.40;99.90;;;;;;5091709;28;20233;-75
2023/06/11 12:07:56;;;;;;;2.38;2.17;;;29.30;99.90;;;;;;5091387;28;20307;-74
2023/06/11 12:10:24;;;;;;;3.53;2.33;;;29.20;99.90;;;;;;5091688;28;20248;-75
2023/06/11 12:12:53;;;;;;;2.30;2.13;;;29.20;99.90;;;;;;5090999;28;20201;-75
2023/06/11 12:15:20;;;;;;;2.47;2.22;;;29.30;99.90;;;;;;5091629;28;20306;-75
2023/06/11 12:17:47;;;;;;;2.40;2.20;;;29.40;99.90;;;;;;5091271;28;20232;-74
2023/06/11 12:20:14;;;;;;;2.33;2.10;;;29.50;99.90;;;;;;5091476;28;20212;-74
2023/06/11 12:22:40;;;;;;;2.88;2.67;;;29.40;99.90;;;;;;5091543;28;20233;-73
2023/06/11 12:25:08;;;;;;;3.25;2.33;;;29.10;99.90;;;;;;5091665;28;20241;-75
2023/06/11 12:27:35;;;;;;;2.90;2.25;;;29.20;99.90;;;;;;5091598;28;20202;-75
2023/06/11 12:30:04;;;;;;;2.22;2.03;;;29.20;99.90;;;;;;5091010;28;20220;-75
2023/06/11 12:32:31;;;;;;;2.97;2.58;;;29.40;99.90;;;;;;5091400;28;20233;-74
2023/06/11 12:34:58;;;;;;;2.55;2.35;;;29.40;99.90;;;;;;5090530;28;20244;-73
2023/06/11 12:37:26;;;;;;;1.90;1.80;;;29.70;99.90;;;;;;5091113;28;20239;-75
2023/06/11 12:39:53;;;;;;;1.65;1.55;;;29.50;99.90;;;;;;5090891;28;20267;-74
2023/06/11 12:42:20;;;;;;;2.28;2.08;;;28.70;99.90;;;;;;5091119;28;20711;-75
2023/06/11 12:44:47;;;;;;;2.22;2.10;;;28.70;99.90;;;;;;5090675;28;20673;-75
2023/06/11 12:47:16;;;;;;;2.10;1.90;;;28.60;99.90;;;;;;5091054;28;20677;-75
2023/06/11 12:49:43;;;;;;;2.58;2.38;;;28.80;99.90;;;;;;5090594;28;20259;-75
2023/06/11 12:52:11;;;;;;;2.40;2.20;;;29.10;99.90;;;;;;5090980;28;20237;-75